Snav Lazio — IBUH — position and weather

sailwx.info

Track history (hours):
 
Tides and Currents Weather Stations Pressure Air Temp Water Temp Dewpoint Dewpoint Depression Visibility Wind Speed Wind Dir Waves Ship Positions

Snav Lazio

Last reported at 2016-Dec-09 21:28 UTC. Time now 2016-Dec-10 22:33 UTC.
Position N 38°37' E 013°33'.

Length 162 m; draft 6 m.

Type: Passenger vessel. MMSI: 247163100.

Date/timePositionNaut miles runAvg speedWind from/ knotsBaromVisibWave heightAir tempDewpointWater temp
2016-Dec-09 21:28N 38°37' E 013°33'1516.2
2016-Dec-09 20:33N 38°22' E 013°29'1515.0
2016-Dec-09 19:33N 38°08' E 013°24'2 1.8
2016-Dec-09 18:33N 38°08' E 013°22'0 0.0
2016-Dec-09 17:33N 38°08' E 013°22'0 0.0
2016-Dec-09 16:33N 38°08' E 013°22'0 0.0
2016-Dec-09 15:33N 38°08' E 013°22'0 0.0
2016-Dec-09 14:33N 38°08' E 013°22'0 0.0
2016-Dec-09 13:33N 38°08' E 013°22'0 0.0
2016-Dec-09 12:33N 38°08' E 013°22'0 0.0
2016-Dec-09 11:33N 38°08' E 013°22'0 0.0
2016-Dec-09 10:33N 38°08' E 013°22'0 0.0
2016-Dec-09 09:33N 38°08' E 013°22'0 0.0
2016-Dec-09 08:33N 38°08' E 013°22'5 5.5
2016-Dec-09 07:33N 38°12' E 013°25'1515.5
2016-Dec-09 06:33N 38°28' E 013°30'  
2016-Dec-02 21:33N 38°34' E 013°33'1312.7
2016-Dec-02 20:34N 38°21' E 013°29'1111.1
2016-Dec-02 19:33N 38°11' E 013°26'4 4.3
2016-Dec-02 18:33N 38°08' E 013°22'0 0.0
2016-Dec-02 17:33N 38°08' E 013°22'0 0.0
2016-Dec-02 16:33N 38°08' E 013°22'0 0.0
2016-Dec-02 15:33N 38°08' E 013°22'0 0.0
2016-Dec-02 14:33N 38°08' E 013°22'0 0.0
2016-Dec-02 13:33N 38°08' E 013°22'0 0.0
2016-Dec-02 12:34N 38°08' E 013°22'0 0.0
2016-Dec-02 11:34N 38°08' E 013°22'0 0.0
2016-Dec-02 10:33N 38°08' E 013°22'0 0.0
2016-Dec-02 09:33N 38°08' E 013°22'0 0.0
2016-Dec-02 08:33N 38°08' E 013°22'0 0.0
2016-Dec-02 07:33N 38°08' E 013°22'0 0.1
2016-Dec-02 06:34N 38°08' E 013°22'9 8.6
2016-Dec-02 05:33N 38°16' E 013°27'1615.6
2016-Dec-02 04:33N 38°31' E 013°31'1615.7
2016-Dec-02 03:33N 38°46' E 013°36'128 9.0
2016-Dec-01 13:24N 40°50' E 014°16'0 0.0
2016-Dec-01 06:33N 40°50' E 014°16'8 7.6
2016-Dec-01 05:33N 40°43' E 014°13'1716.0
2016-Dec-01 04:31N 40°27' E 014°06'11515.8
2016-Nov-30 21:12N 38°35' E 013°33'1015.9
2016-Nov-30 20:33N 38°25' E 013°30'1615.6
2016-Nov-30 19:34N 38°10' E 013°26'3 3.4
2016-Nov-30 18:33N 38°08' E 013°22'0 0.0
2016-Nov-30 17:33N 38°08' E 013°22'0 0.0
2016-Nov-30 16:33N 38°08' E 013°22'0 0.0
2016-Nov-30 15:30N 38°08' E 013°22'0 0.0
2016-Nov-30 14:33N 38°08' E 013°22'0 0.0
2016-Nov-30 13:33N 38°08' E 013°22'0 0.0
2016-Nov-30 12:33N 38°08' E 013°22'0 0.0
2016-Nov-30 11:33N 38°08' E 013°22'0 0.0
2016-Nov-30 10:09N 38°08' E 013°22'0 0.0
2016-Nov-30 09:27N 38°08' E 013°22'0 0.0
2016-Nov-30 08:27N 38°08' E 013°22'0 0.0
2016-Nov-30 07:24N 38°08' E 013°22'0 0.0
2016-Nov-30 06:33N 38°08' E 013°22'4 4.0
2016-Nov-30 05:33N 38°11' E 013°25'1615.5
2016-Nov-30 04:33N 38°26' E 013°30'10416.1
2016-Nov-29 22:04N 40°08' E 013°60'816.0
2016-Nov-29 21:33N 40°16' E 014°02'  
Track history (hours):
 
Tides and Currents Weather Stations Pressure Air Temp Water Temp Dewpoint Dewpoint Depression Visibility Wind Speed Wind Dir Waves Ship Positions

Snav Lazio

Last reported at 2016-Dec-09 21:28 UTC. Time now 2016-Dec-10 22:33 UTC.
Position N 38°37' E 013°33'.

Length 162 m; draft 6 m.

Type: Passenger vessel. MMSI: 247163100.

Date/timePositionNaut miles runAvg speedWind from/ knotsBaromVisibWave heightAir tempDewpointWater temp
2016-Dec-09 21:28N 38°37' E 013°33'1516.2
2016-Dec-09 20:33N 38°22' E 013°29'1515.0
2016-Dec-09 19:33N 38°08' E 013°24'2 1.8
2016-Dec-09 18:33N 38°08' E 013°22'0 0.0
2016-Dec-09 17:33N 38°08' E 013°22'0 0.0
2016-Dec-09 16:33N 38°08' E 013°22'0 0.0
2016-Dec-09 15:33N 38°08' E 013°22'0 0.0
2016-Dec-09 14:33N 38°08' E 013°22'0 0.0
2016-Dec-09 13:33N 38°08' E 013°22'0 0.0
2016-Dec-09 12:33N 38°08' E 013°22'0 0.0
2016-Dec-09 11:33N 38°08' E 013°22'0 0.0
2016-Dec-09 10:33N 38°08' E 013°22'0 0.0
2016-Dec-09 09:33N 38°08' E 013°22'0 0.0
2016-Dec-09 08:33N 38°08' E 013°22'5 5.5
2016-Dec-09 07:33N 38°12' E 013°25'1515.5
2016-Dec-09 06:33N 38°28' E 013°30'  
2016-Dec-02 21:33N 38°34' E 013°33'1312.7
2016-Dec-02 20:34N 38°21' E 013°29'1111.1
2016-Dec-02 19:33N 38°11' E 013°26'4 4.3
2016-Dec-02 18:33N 38°08' E 013°22'0 0.0
2016-Dec-02 17:33N 38°08' E 013°22'0 0.0
2016-Dec-02 16:33N 38°08' E 013°22'0 0.0
2016-Dec-02 15:33N 38°08' E 013°22'0 0.0
2016-Dec-02 14:33N 38°08' E 013°22'0 0.0
2016-Dec-02 13:33N 38°08' E 013°22'0 0.0
2016-Dec-02 12:34N 38°08' E 013°22'0 0.0
2016-Dec-02 11:34N 38°08' E 013°22'0 0.0
2016-Dec-02 10:33N 38°08' E 013°22'0 0.0
2016-Dec-02 09:33N 38°08' E 013°22'0 0.0
2016-Dec-02 08:33N 38°08' E 013°22'0 0.0
2016-Dec-02 07:33N 38°08' E 013°22'0 0.1
2016-Dec-02 06:34N 38°08' E 013°22'9 8.6
2016-Dec-02 05:33N 38°16' E 013°27'1615.6
2016-Dec-02 04:33N 38°31' E 013°31'1615.7
2016-Dec-02 03:33N 38°46' E 013°36'128 9.0
2016-Dec-01 13:24N 40°50' E 014°16'0 0.0
2016-Dec-01 06:33N 40°50' E 014°16'8 7.6
2016-Dec-01 05:33N 40°43' E 014°13'1716.0
2016-Dec-01 04:31N 40°27' E 014°06'11515.8
2016-Nov-30 21:12N 38°35' E 013°33'1015.9
2016-Nov-30 20:33N 38°25' E 013°30'1615.6
2016-Nov-30 19:34N 38°10' E 013°26'3 3.4
2016-Nov-30 18:33N 38°08' E 013°22'0 0.0
2016-Nov-30 17:33N 38°08' E 013°22'0 0.0
2016-Nov-30 16:33N 38°08' E 013°22'0 0.0
2016-Nov-30 15:30N 38°08' E 013°22'0 0.0
2016-Nov-30 14:33N 38°08' E 013°22'0 0.0
2016-Nov-30 13:33N 38°08' E 013°22'0 0.0
2016-Nov-30 12:33N 38°08' E 013°22'0 0.0
2016-Nov-30 11:33N 38°08' E 013°22'0 0.0
2016-Nov-30 10:09N 38°08' E 013°22'0 0.0
2016-Nov-30 09:27N 38°08' E 013°22'0 0.0
2016-Nov-30 08:27N 38°08' E 013°22'0 0.0
2016-Nov-30 07:24N 38°08' E 013°22'0 0.0
2016-Nov-30 06:33N 38°08' E 013°22'4 4.0
2016-Nov-30 05:33N 38°11' E 013°25'1615.5
2016-Nov-30 04:33N 38°26' E 013°30'10416.1
2016-Nov-29 22:04N 40°08' E 013°60'816.0
2016-Nov-29 21:33N 40°16' E 014°02'  

Dump ship's entire track history